createdAt,value
2017-09-12T00:00:54.683Z,80.90
2017-09-12T00:03:22.222Z,80.80
2017-09-12T00:05:49.748Z,80.70
2017-09-12T00:08:17.683Z,81.10
2017-09-12T00:10:46.179Z,81.00
2017-09-12T00:13:13.737Z,81.00
2017-09-12T00:15:41.282Z,81.00
2017-09-12T00:18:08.823Z,81.30
2017-09-12T00:20:36.733Z,81.30
2017-09-12T00:23:04.269Z,81.30
2017-09-12T00:25:31.788Z,81.40
2017-09-12T00:27:59.730Z,81.60
2017-09-12T00:30:28.289Z,81.60
2017-09-12T00:32:57.533Z,81.90
2017-09-12T00:35:25.153Z,81.90
2017-09-12T00:37:52.689Z,81.90
2017-09-12T00:40:20.615Z,82.30
2017-09-12T00:42:48.139Z,82.30
2017-09-12T00:45:15.684Z,82.00
2017-09-12T00:47:43.786Z,82.20
2017-09-12T00:50:11.341Z,82.00
2017-09-12T00:52:38.888Z,82.10
2017-09-12T00:55:06.447Z,82.40
2017-09-12T00:57:33.989Z,82.20
2017-09-12T01:00:01.536Z,82.30
2017-09-12T01:02:29.470Z,82.30
2017-09-12T01:04:57.521Z,82.30
2017-09-12T01:07:25.037Z,82.30
2017-09-12T01:09:52.552Z,82.40
2017-09-12T01:12:20.110Z,82.20
2017-09-12T01:14:47.639Z,82.20
2017-09-12T01:17:15.857Z,82.30
2017-09-12T01:19:43.794Z,82.00
2017-09-12T01:22:11.353Z,82.00
2017-09-12T01:24:38.869Z,82.00
2017-09-12T01:27:06.425Z,82.10
2017-09-12T01:29:33.952Z,81.90
2017-09-12T01:32:01.510Z,82.00
2017-09-12T01:34:29.053Z,81.90
2017-09-12T01:36:57.571Z,82.20
2017-09-12T01:39:25.496Z,82.20
2017-09-12T01:41:53.015Z,82.20
2017-09-12T01:44:20.554Z,82.20
2017-09-12T01:46:48.482Z,82.10
2017-09-12T01:49:16.102Z,82.10
2017-09-12T01:51:44.650Z,82.30
2017-09-12T01:54:12.609Z,82.50
2017-09-12T01:56:40.140Z,82.50
2017-09-12T01:59:07.688Z,82.40
2017-09-12T02:01:35.234Z,82.40
2017-09-12T02:04:02.796Z,82.70
2017-09-12T02:06:30.352Z,82.50
2017-09-12T02:08:59.047Z,82.60
2017-09-12T02:11:26.613Z,82.60
2017-09-12T02:13:54.159Z,82.60
2017-09-12T02:16:21.718Z,84.90
2017-09-12T02:18:49.255Z,85.40
2017-09-12T02:21:16.810Z,85.70
2017-09-12T02:23:45.471Z,87.10
2017-09-12T02:26:13.012Z,87.10
2017-09-12T02:28:40.947Z,88.80
2017-09-12T02:31:08.526Z,88.80
2017-09-12T02:33:36.105Z,88.90
2017-09-12T02:36:03.651Z,89.40
2017-09-12T02:38:31.199Z,89.40
2017-09-12T02:40:58.711Z,89.80
2017-09-12T02:43:26.239Z,89.70
2017-09-12T02:45:53.804Z,89.80
2017-09-12T02:48:21.351Z,90.10
2017-09-12T02:50:48.881Z,90.80
2017-09-12T02:53:16.515Z,91.60
2017-09-12T02:55:44.945Z,92.40
2017-09-12T02:58:12.472Z,93.00
2017-09-12T03:00:40.022Z,93.30
2017-09-12T03:03:07.560Z,93.50
2017-09-12T03:05:35.104Z,93.90
2017-09-12T03:08:02.639Z,94.00
2017-09-12T03:10:30.188Z,93.90
2017-09-12T03:12:58.439Z,94.20
2017-09-12T03:15:26.015Z,94.20
2017-09-12T03:17:53.560Z,94.20
2017-09-12T03:20:21.088Z,94.30
2017-09-12T03:22:48.634Z,94.40
2017-09-12T03:25:16.178Z,94.30
2017-09-12T03:27:44.892Z,94.40
2017-09-12T03:30:12.816Z,94.40
2017-09-12T03:32:40.370Z,94.30
2017-09-12T03:35:07.907Z,94.40
2017-09-12T03:37:35.456Z,94.50
2017-09-12T03:40:02.994Z,94.50
2017-09-12T03:42:30.585Z,94.30
2017-09-12T03:44:58.915Z,94.90
2017-09-12T03:47:27.094Z,95.50
2017-09-12T03:49:54.649Z,96.00
2017-09-12T03:52:22.571Z,97.30
2017-09-12T03:54:50.126Z,97.30
2017-09-12T03:57:17.662Z,97.70
2017-09-12T03:59:46.517Z,97.60
2017-09-12T04:02:14.659Z,97.60
2017-09-12T04:04:42.237Z,97.80
2017-09-12T04:07:09.770Z,97.90
2017-09-12T04:09:37.349Z,98.40
2017-09-12T04:12:04.908Z,98.10
2017-09-12T04:14:32.454Z,98.10
2017-09-12T04:17:00.739Z,98.20
2017-09-12T04:19:29.572Z,98.20
2017-09-12T04:21:58.278Z,98.30
2017-09-12T04:24:25.862Z,98.00
2017-09-12T04:26:53.416Z,97.80
2017-09-12T04:29:20.951Z,97.80
2017-09-12T04:31:48.516Z,97.70
2017-09-12T04:34:16.459Z,98.10
2017-09-12T04:36:44.804Z,98.10
2017-09-12T04:39:12.362Z,98.10
2017-09-12T04:41:39.891Z,98.30
2017-09-12T04:44:07.429Z,98.50
2017-09-12T04:46:34.973Z,98.40
2017-09-12T04:49:02.531Z,98.40
2017-09-12T04:51:30.495Z,98.70
2017-09-12T04:53:58.695Z,98.60
2017-09-12T04:56:27.762Z,98.70
2017-09-12T04:58:55.411Z,98.90
2017-09-12T05:01:22.935Z,98.70
2017-09-12T05:03:50.473Z,98.70
2017-09-12T05:06:18.027Z,98.70
2017-09-12T05:08:46.008Z,98.80
2017-09-12T05:11:14.062Z,98.60
2017-09-12T05:13:41.590Z,98.60
2017-09-12T05:16:09.149Z,98.50
2017-09-12T05:18:36.681Z,98.70
2017-09-12T05:21:04.222Z,98.80
2017-09-12T05:23:32.182Z,98.60
2017-09-12T05:25:59.704Z,98.60
2017-09-12T05:28:28.178Z,98.40
2017-09-12T05:30:55.711Z,98.40
2017-09-12T05:33:23.255Z,98.50
2017-09-12T05:35:51.179Z,98.80
2017-09-12T05:38:18.743Z,98.80
2017-09-12T05:40:47.092Z,98.80
2017-09-12T05:43:15.484Z,98.70
2017-09-12T05:45:43.040Z,99.00
2017-09-12T05:48:10.564Z,98.60
2017-09-12T05:50:38.140Z,98.60
2017-09-12T05:53:05.688Z,98.60
2017-09-12T05:55:33.638Z,99.10
2017-09-12T05:58:01.174Z,99.10
2017-09-12T06:00:28.720Z,99.00
2017-09-12T06:02:58.363Z,98.90
2017-09-12T06:05:25.900Z,98.50
2017-09-12T06:07:53.438Z,98.40
2017-09-12T06:10:21.406Z,99.10
2017-09-12T06:12:48.955Z,99.10
2017-09-12T06:15:16.501Z,99.20
2017-09-12T06:17:44.834Z,98.90
2017-09-12T06:20:12.368Z,98.90
2017-09-12T06:22:39.912Z,98.70
2017-09-12T06:25:07.433Z,98.90
2017-09-12T06:27:34.979Z,98.80
2017-09-12T06:30:02.512Z,98.40
2017-09-12T06:32:30.055Z,98.70
2017-09-12T06:34:57.604Z,98.90
2017-09-12T06:37:25.175Z,98.90
2017-09-12T06:39:52.712Z,98.90
2017-09-12T06:42:20.279Z,98.70
2017-09-12T06:44:47.813Z,98.90
2017-09-12T06:47:16.358Z,99.10
2017-09-12T06:49:44.541Z,98.90
2017-09-12T06:52:12.490Z,98.90
2017-09-12T06:54:40.066Z,98.90
2017-09-12T06:57:07.601Z,98.70
2017-09-12T06:59:35.164Z,98.80
2017-09-12T07:02:02.739Z,98.40
2017-09-12T07:04:30.319Z,98.50
2017-09-12T07:06:59.165Z,98.50
2017-09-12T07:09:26.770Z,98.50
2017-09-12T07:11:54.302Z,98.70
2017-09-12T07:14:21.872Z,98.80
2017-09-12T07:16:49.391Z,98.50
2017-09-12T07:19:16.919Z,98.30
2017-09-12T07:21:44.919Z,98.20
2017-09-12T07:24:12.896Z,98.30
2017-09-12T07:26:40.460Z,98.30
2017-09-12T07:29:08.003Z,98.70
2017-09-12T07:31:35.963Z,98.50
2017-09-12T07:34:03.495Z,98.50
2017-09-12T07:36:31.462Z,98.80
2017-09-12T07:38:59.390Z,98.80
2017-09-12T07:41:27.980Z,98.60
2017-09-12T07:43:55.517Z,98.70
2017-09-12T07:46:23.440Z,98.00
2017-09-12T07:48:50.997Z,97.90
2017-09-12T07:51:18.923Z,98.60
2017-09-12T07:53:46.488Z,98.60
2017-09-12T07:56:14.067Z,98.40
2017-09-12T07:58:41.611Z,98.10
2017-09-12T08:01:09.167Z,98.50
2017-09-12T08:03:36.746Z,98.40
2017-09-12T08:06:04.284Z,98.50
2017-09-12T08:08:31.839Z,98.30
2017-09-12T08:10:59.370Z,97.40
2017-09-12T08:13:27.688Z,97.90
2017-09-12T08:15:55.645Z,97.80
2017-09-12T08:18:23.172Z,97.80
2017-09-12T08:20:50.717Z,97.60
2017-09-12T08:23:18.259Z,97.10
2017-09-12T08:25:45.799Z,97.20
2017-09-12T08:28:14.076Z,96.70
2017-09-12T08:30:41.627Z,97.20
2017-09-12T08:33:09.566Z,95.40
2017-09-12T08:35:37.123Z,95.40
2017-09-12T08:38:04.667Z,96.50
2017-09-12T08:40:32.247Z,96.40
2017-09-12T08:42:59.794Z,95.80
2017-09-12T08:45:28.357Z,94.90
2017-09-12T08:47:55.937Z,96.20
2017-09-12T08:50:23.499Z,96.40
2017-09-12T08:52:51.070Z,94.80
2017-09-12T08:55:19.022Z,95.10
2017-09-12T08:57:46.593Z,95.10
2017-09-12T09:00:15.471Z,95.70
2017-09-12T09:02:44.106Z,94.90
2017-09-12T09:05:11.627Z,94.90
2017-09-12T09:07:39.490Z,95.40
2017-09-12T09:10:07.035Z,95.10
2017-09-12T09:12:34.585Z,94.70
2017-09-12T09:15:02.146Z,94.10
2017-09-12T09:17:30.064Z,94.30
2017-09-12T09:19:57.641Z,94.30
2017-09-12T09:22:25.175Z,94.10
2017-09-12T09:24:52.727Z,94.70
2017-09-12T09:27:20.666Z,92.90
2017-09-12T09:29:48.213Z,92.80
2017-09-12T09:32:16.149Z,92.80
2017-09-12T09:34:44.112Z,92.80
2017-09-12T09:37:12.033Z,92.20
2017-09-12T09:39:39.621Z,92.20
2017-09-12T09:42:07.166Z,90.00
2017-09-12T09:44:34.757Z,89.60
2017-09-12T09:47:02.717Z,91.80
2017-09-12T09:49:30.235Z,91.80
2017-09-12T09:51:59.190Z,91.90
2017-09-12T09:54:27.825Z,91.90
2017-09-12T09:56:55.364Z,94.10
2017-09-12T09:59:22.880Z,93.30
2017-09-12T10:01:50.819Z,90.60
2017-09-12T10:04:18.354Z,90.50
2017-09-12T10:06:46.286Z,86.40
2017-09-12T10:09:14.762Z,86.40
2017-09-12T10:11:42.296Z,84.50
2017-09-12T10:14:09.856Z,85.40
2017-09-12T10:16:37.390Z,84.30
2017-09-12T10:19:04.942Z,84.50
2017-09-12T10:21:32.472Z,83.90
2017-09-12T10:24:00.005Z,84.80
2017-09-12T10:26:27.969Z,85.20
2017-09-12T10:28:55.500Z,84.70
2017-09-12T10:31:23.024Z,82.50
2017-09-12T10:33:50.599Z,81.90
2017-09-12T10:36:18.143Z,83.90
2017-09-12T10:38:45.698Z,82.70
2017-09-12T10:41:14.090Z,85.00
2017-09-12T10:43:41.607Z,85.00
2017-09-12T10:46:09.550Z,86.40
2017-09-12T10:48:37.083Z,86.40
2017-09-12T10:51:05.032Z,87.30
2017-09-12T10:53:32.571Z,87.30
2017-09-12T10:56:00.130Z,88.60
2017-09-12T10:58:27.645Z,88.90
2017-09-12T11:00:55.209Z,91.00
2017-09-12T11:03:23.140Z,87.60
2017-09-12T11:05:50.656Z,87.60
2017-09-12T11:08:18.228Z,86.60
2017-09-12T11:10:45.806Z,85.60
2017-09-12T11:13:13.384Z,84.60
2017-09-12T11:15:41.810Z,83.10
2017-09-12T11:18:09.386Z,82.90
2017-09-12T11:20:36.914Z,85.00
2017-09-12T11:23:04.476Z,85.80
2017-09-12T11:25:32.004Z,82.30
2017-09-12T11:28:00.038Z,80.50
2017-09-12T11:30:27.560Z,79.10
2017-09-12T11:32:55.080Z,78.70
2017-09-12T11:35:23.015Z,79.30
2017-09-12T11:37:50.532Z,79.30
2017-09-12T11:40:18.068Z,79.00
2017-09-12T11:42:46.438Z,79.40
2017-09-12T11:45:15.060Z,78.70
2017-09-12T11:47:42.595Z,78.70
2017-09-12T11:50:10.158Z,79.80
2017-09-12T11:52:37.698Z,76.90
2017-09-12T11:55:05.235Z,74.60
2017-09-12T11:57:32.759Z,74.30
2017-09-12T12:00:00.284Z,72.60
2017-09-12T12:02:29.620Z,74.90
2017-09-12T12:04:57.533Z,72.70
2017-09-12T12:07:25.068Z,72.50
2017-09-12T12:09:52.603Z,72.10
2017-09-12T12:12:20.556Z,72.60
2017-09-12T12:14:48.100Z,72.60
2017-09-12T12:17:17.739Z,71.30
2017-09-12T12:19:45.740Z,72.40
2017-09-12T12:22:13.286Z,73.80
2017-09-12T12:24:40.812Z,71.70
2017-09-12T12:27:08.377Z,73.50
2017-09-12T12:29:35.923Z,71.60
2017-09-12T12:32:03.443Z,72.50
2017-09-12T12:34:30.979Z,70.90
2017-09-12T12:36:59.857Z,69.60
2017-09-12T12:39:28.387Z,69.10
2017-09-12T12:41:57.988Z,70.70
2017-09-12T12:44:25.545Z,70.70
2017-09-12T12:46:53.096Z,71.00
2017-09-12T12:49:20.952Z,67.60
2017-09-12T12:51:48.497Z,67.80
2017-09-12T12:54:16.053Z,67.00
2017-09-12T12:56:44.252Z,67.60
2017-09-12T12:59:11.783Z,69.30
2017-09-12T13:01:39.319Z,69.10
2017-09-12T13:04:06.839Z,69.60
2017-09-12T13:06:34.790Z,70.00
2017-09-12T13:09:02.329Z,70.10
2017-09-12T13:11:30.264Z,69.90
2017-09-12T13:13:58.779Z,69.90
2017-09-12T13:16:27.500Z,68.50
2017-09-12T13:18:55.046Z,69.60
2017-09-12T13:21:22.595Z,69.90
2017-09-12T13:23:50.113Z,70.80
2017-09-12T13:26:17.643Z,71.00
2017-09-12T13:28:46.320Z,70.00
2017-09-12T13:31:14.450Z,70.00
2017-09-12T13:33:41.977Z,68.70
2017-09-12T13:36:09.505Z,70.50
2017-09-12T13:38:37.487Z,75.00
2017-09-12T13:41:05.015Z,74.90
2017-09-12T13:43:32.570Z,74.20
2017-09-12T13:46:00.095Z,76.10
2017-09-12T13:48:27.639Z,76.30
2017-09-12T13:50:55.192Z,78.60
2017-09-12T13:53:22.716Z,78.80
2017-09-12T13:55:50.678Z,78.00
2017-09-12T13:58:18.204Z,78.00
2017-09-12T14:00:46.144Z,81.30
2017-09-12T14:03:13.741Z,81.30
2017-09-12T14:05:41.290Z,82.90
2017-09-12T14:08:08.819Z,83.60
2017-09-12T14:10:36.384Z,84.80
2017-09-12T14:13:03.916Z,85.30
2017-09-12T14:15:31.459Z,87.90
2017-09-12T14:17:58.985Z,87.30
2017-09-12T14:20:27.278Z,86.50
2017-09-12T14:22:54.797Z,87.70
2017-09-12T14:25:22.319Z,84.30
2017-09-12T14:27:49.916Z,85.70
2017-09-12T14:30:17.823Z,84.70
2017-09-12T14:32:46.063Z,84.60
2017-09-12T14:35:14.314Z,84.80
2017-09-12T14:37:42.248Z,83.70
2017-09-12T14:40:09.778Z,83.70
2017-09-12T14:42:37.347Z,83.60
2017-09-12T14:45:04.963Z,83.50
2017-09-12T14:47:32.484Z,83.00
2017-09-12T14:50:00.021Z,82.40
2017-09-12T14:52:27.539Z,83.40
2017-09-12T14:54:55.466Z,82.10
2017-09-12T14:57:23.019Z,82.10
2017-09-12T14:59:50.621Z,82.90
2017-09-12T15:02:18.154Z,82.20
2017-09-12T15:04:46.274Z,82.60
2017-09-12T15:07:15.202Z,83.50
2017-09-12T15:09:43.156Z,84.70
2017-09-12T15:12:10.679Z,84.70
2017-09-12T15:14:38.218Z,84.70
2017-09-12T15:17:05.841Z,85.50
2017-09-12T15:19:33.380Z,85.20
2017-09-12T15:22:00.921Z,85.40
2017-09-12T15:24:29.917Z,86.00
2017-09-12T15:26:58.473Z,86.30
2017-09-12T15:29:27.112Z,84.40
2017-09-12T15:31:54.678Z,84.40
2017-09-12T15:34:22.613Z,82.40
2017-09-12T15:36:50.197Z,82.40
2017-09-12T15:39:17.728Z,82.90
2017-09-12T15:41:45.732Z,82.80
2017-09-12T15:44:13.403Z,80.90
2017-09-12T15:46:40.946Z,80.00
2017-09-12T15:49:08.900Z,77.00
2017-09-12T15:51:36.438Z,77.00
2017-09-12T15:54:04.044Z,76.80
2017-09-12T15:56:31.568Z,78.30
2017-09-12T15:58:59.115Z,78.00
2017-09-12T16:01:27.072Z,78.70
2017-09-12T16:03:54.667Z,78.10
2017-09-12T16:06:22.206Z,78.80
2017-09-12T16:08:49.742Z,79.50
2017-09-12T16:11:17.287Z,80.20
2017-09-12T16:13:44.856Z,80.20
2017-09-12T16:16:13.300Z,81.60
2017-09-12T16:18:40.828Z,81.60
2017-09-12T16:21:08.375Z,82.00
2017-09-12T16:23:35.900Z,81.90
2017-09-12T16:26:03.445Z,81.50
2017-09-12T16:28:33.817Z,82.30
2017-09-12T16:31:01.439Z,82.10
2017-09-12T16:33:28.978Z,82.40
2017-09-12T16:35:56.554Z,83.00
2017-09-12T16:38:24.085Z,82.50
2017-09-12T16:40:51.614Z,82.00
2017-09-12T16:43:19.170Z,81.40
2017-09-12T16:45:46.670Z,82.00
2017-09-12T16:48:15.606Z,82.30
2017-09-12T16:50:43.148Z,82.30
2017-09-12T16:53:11.698Z,82.40
2017-09-12T16:55:39.216Z,81.40
2017-09-12T16:58:06.764Z,81.10
2017-09-12T17:00:34.307Z,81.90
2017-09-12T17:03:01.894Z,82.20
2017-09-12T17:05:29.450Z,81.70
2017-09-12T17:07:58.032Z,81.60
2017-09-12T17:10:25.583Z,82.10
2017-09-12T17:12:53.148Z,82.00
2017-09-12T17:15:21.369Z,82.80
2017-09-12T17:17:49.004Z,82.80
2017-09-12T17:20:16.936Z,83.20
2017-09-12T17:22:45.460Z,83.80
2017-09-12T17:25:13.407Z,84.80
2017-09-12T17:27:40.979Z,84.90
2017-09-12T17:30:08.512Z,85.60
2017-09-12T17:32:36.056Z,85.50
2017-09-12T17:35:03.598Z,85.90
2017-09-12T17:37:33.992Z,86.20
2017-09-12T17:40:01.535Z,86.10
2017-09-12T17:42:29.240Z,86.40
2017-09-12T17:44:57.746Z,87.20
2017-09-12T17:47:25.392Z,86.90
2017-09-12T17:49:52.932Z,87.20
2017-09-12T17:52:20.465Z,87.30
2017-09-12T17:54:49.028Z,86.70
2017-09-12T17:57:16.560Z,86.70
2017-09-12T17:59:45.306Z,86.50
2017-09-12T18:02:12.840Z,86.50
2017-09-12T18:04:40.381Z,86.80
2017-09-12T18:07:07.904Z,86.20
2017-09-12T18:09:35.638Z,85.90
2017-09-12T18:12:03.199Z,85.90
2017-09-12T18:14:30.848Z,85.70
2017-09-12T18:16:59.637Z,86.10
2017-09-12T18:19:28.428Z,86.10
2017-09-12T18:21:56.020Z,86.20
2017-09-12T18:24:23.980Z,87.10
2017-09-12T18:26:52.008Z,87.10
2017-09-12T18:29:21.100Z,87.40
2017-09-12T18:31:48.740Z,87.20
2017-09-12T18:34:16.273Z,86.90
2017-09-12T18:36:44.369Z,87.40
2017-09-12T18:39:11.895Z,87.40
2017-09-12T18:41:39.821Z,87.50
2017-09-12T18:44:07.773Z,87.50
2017-09-12T18:46:35.605Z,87.60
2017-09-12T18:49:03.196Z,87.90
2017-09-12T18:51:30.720Z,87.90
2017-09-12T18:53:59.698Z,87.80
2017-09-12T18:56:27.843Z,88.30
2017-09-12T18:58:55.395Z,88.30
2017-09-12T19:01:23.736Z,88.50
2017-09-12T19:03:51.264Z,88.20
2017-09-12T19:06:19.307Z,87.70
2017-09-12T19:08:47.470Z,87.70
2017-09-12T19:11:17.228Z,87.20
2017-09-12T19:13:45.748Z,87.00
2017-09-12T19:16:15.198Z,87.00
2017-09-12T19:18:42.847Z,86.90
2017-09-12T19:21:10.394Z,86.80
2017-09-12T19:23:38.108Z,87.10
2017-09-12T19:26:05.695Z,87.10
2017-09-12T19:28:33.268Z,87.30
2017-09-12T19:31:00.832Z,87.20
2017-09-12T19:33:29.722Z,87.00
2017-09-12T19:35:58.096Z,86.80
2017-09-12T19:38:25.617Z,87.10
2017-09-12T19:40:53.233Z,87.30
2017-09-12T19:43:20.797Z,87.30
2017-09-12T19:45:48.574Z,87.50
2017-09-12T19:48:16.155Z,87.40
2017-09-12T19:50:44.497Z,87.70
2017-09-12T19:53:12.058Z,88.20
2017-09-12T19:55:39.617Z,88.10
2017-09-12T19:58:07.172Z,88.00
2017-09-12T20:00:35.213Z,87.50
2017-09-12T20:03:02.772Z,87.50
2017-09-12T20:05:30.382Z,86.80
2017-09-12T20:07:58.680Z,86.80
2017-09-12T20:10:26.254Z,86.90
2017-09-12T20:12:53.893Z,86.50
2017-09-12T20:15:21.600Z,86.30
2017-09-12T20:17:49.165Z,86.10
2017-09-12T20:20:16.762Z,85.70
2017-09-12T20:22:44.537Z,85.80
2017-09-12T20:25:12.159Z,85.40
2017-09-12T20:27:39.692Z,85.10
2017-09-12T20:30:07.233Z,85.20
2017-09-12T20:32:34.831Z,85.40
2017-09-12T20:35:02.386Z,85.50
2017-09-12T20:37:30.004Z,85.50
2017-09-12T20:39:58.701Z,85.80
2017-09-12T20:42:27.548Z,85.80
2017-09-12T20:44:55.258Z,85.50
2017-09-12T20:47:22.832Z,85.50
2017-09-12T20:49:50.377Z,85.50
2017-09-12T20:52:17.935Z,85.60
2017-09-12T20:54:46.852Z,86.00
2017-09-12T20:57:15.437Z,86.20
2017-09-12T20:59:42.984Z,85.80
2017-09-12T21:02:10.524Z,85.90
2017-09-12T21:04:38.464Z,86.20
2017-09-12T21:07:06.016Z,86.20
2017-09-12T21:09:33.592Z,86.70
2017-09-12T21:12:01.518Z,86.60
2017-09-12T21:14:29.068Z,86.60
2017-09-12T21:16:57.500Z,86.90
2017-09-12T21:19:25.036Z,86.90
2017-09-12T21:21:52.581Z,87.10
2017-09-12T21:24:20.113Z,87.30
2017-09-12T21:26:47.690Z,87.30
2017-09-12T21:29:15.735Z,87.60
2017-09-12T21:31:43.294Z,87.80
2017-09-12T21:34:10.824Z,87.50
2017-09-12T21:36:38.379Z,87.70
2017-09-12T21:39:05.928Z,88.10
2017-09-12T21:41:33.469Z,88.00
2017-09-12T21:44:01.025Z,88.20
2017-09-12T21:46:29.095Z,87.90
2017-09-12T21:48:56.660Z,88.10
2017-09-12T21:51:24.593Z,88.10
2017-09-12T21:53:52.131Z,88.10
2017-09-12T21:56:20.096Z,88.30
2017-09-12T21:58:47.646Z,88.30
2017-09-12T22:01:15.977Z,88.20
2017-09-12T22:03:43.514Z,88.30
2017-09-12T22:06:11.059Z,88.60
2017-09-12T22:08:38.596Z,88.60
2017-09-12T22:11:06.163Z,89.00
2017-09-12T22:13:33.704Z,89.10
2017-09-12T22:16:01.228Z,89.00
2017-09-12T22:18:28.794Z,89.30
2017-09-12T22:20:58.026Z,89.70
2017-09-12T22:23:25.575Z,90.00
2017-09-12T22:25:53.109Z,89.90
2017-09-12T22:28:20.663Z,90.10
2017-09-12T22:30:48.184Z,90.40
2017-09-12T22:33:17.422Z,90.60
2017-09-12T22:35:44.952Z,90.80
2017-09-12T22:38:12.499Z,91.10
2017-09-12T22:40:40.083Z,91.10
2017-09-12T22:43:08.059Z,91.20
2017-09-12T22:45:35.615Z,91.20
2017-09-12T22:48:03.150Z,91.10
2017-09-12T22:50:30.709Z,91.00
2017-09-12T22:52:59.292Z,90.80
2017-09-12T22:55:27.615Z,90.70
2017-09-12T22:57:55.167Z,90.50
2017-09-12T23:00:22.713Z,90.40
2017-09-12T23:02:50.263Z,89.90
2017-09-12T23:05:18.248Z,89.90
2017-09-12T23:07:46.197Z,90.00
2017-09-12T23:10:13.728Z,90.00
2017-09-12T23:12:41.285Z,89.80
2017-09-12T23:15:08.813Z,90.00
2017-09-12T23:17:36.385Z,90.10
2017-09-12T23:20:03.903Z,90.10
2017-09-12T23:22:33.798Z,90.40
2017-09-12T23:25:02.344Z,90.40
2017-09-12T23:27:29.881Z,90.30
2017-09-12T23:29:58.355Z,90.40
2017-09-12T23:32:26.276Z,90.40
2017-09-12T23:34:53.894Z,90.40
2017-09-12T23:37:21.418Z,90.50
2017-09-12T23:39:48.982Z,90.30
2017-09-12T23:42:16.604Z,90.30
2017-09-12T23:44:44.539Z,90.20
2017-09-12T23:47:12.494Z,90.20
2017-09-12T23:49:40.028Z,90.20
2017-09-12T23:52:07.572Z,90.10
2017-09-12T23:54:35.122Z,89.90
2017-09-12T23:57:02.673Z,89.80
2017-09-12T23:59:30.592Z,89.60
